sensor_id;sensor_type;location;lat;lon;timestamp;pressure;altitude;pressure_sealevel;temperature;humidity
40788;BME280;26497;52.494;7.546;2023-04-06T00:00:23;101267.06;;;6.02;45.25
40788;BME280;26497;52.494;7.546;2023-04-06T00:02:50;101264.03;;;5.88;45.37
40788;BME280;26497;52.494;7.546;2023-04-06T00:05:18;101273.44;;;5.81;45.82
40788;BME280;26497;52.494;7.546;2023-04-06T00:07:46;101265.44;;;5.76;45.71
40788;BME280;26497;52.494;7.546;2023-04-06T00:10:15;101266.19;;;5.72;45.91
40788;BME280;26497;52.494;7.546;2023-04-06T00:12:42;101267.78;;;5.67;46.22
40788;BME280;26497;52.494;7.546;2023-04-06T00:15:10;101263.56;;;5.71;46.08
40788;BME280;26497;52.494;7.546;2023-04-06T00:17:37;101267.88;;;5.70;46.23
40788;BME280;26497;52.494;7.546;2023-04-06T00:20:06;101261.50;;;5.60;46.66
40788;BME280;26497;52.494;7.546;2023-04-06T00:22:33;101252.66;;;5.57;46.52
40788;BME280;26497;52.494;7.546;2023-04-06T00:25:01;101256.13;;;5.56;46.54
40788;BME280;26497;52.494;7.546;2023-04-06T00:27:29;101244.69;;;5.52;46.68
40788;BME280;26497;52.494;7.546;2023-04-06T00:29:56;101251.53;;;5.49;46.91
40788;BME280;26497;52.494;7.546;2023-04-06T00:32:23;101246.00;;;5.38;47.22
40788;BME280;26497;52.494;7.546;2023-04-06T00:34:50;101242.53;;;5.39;47.15
40788;BME280;26497;52.494;7.546;2023-04-06T00:37:17;101237.22;;;5.36;47.46
40788;BME280;26497;52.494;7.546;2023-04-06T00:39:45;101243.28;;;5.35;47.42
40788;BME280;26497;52.494;7.546;2023-04-06T00:42:13;101240.06;;;5.43;47.16
40788;BME280;26497;52.494;7.546;2023-04-06T00:44:41;101233.75;;;5.66;47.16
40788;BME280;26497;52.494;7.546;2023-04-06T00:47:09;101235.63;;;5.71;46.95
40788;BME280;26497;52.494;7.546;2023-04-06T00:49:36;101232.81;;;5.64;47.08
40788;BME280;26497;52.494;7.546;2023-04-06T00:52:04;101229.69;;;5.46;47.34
40788;BME280;26497;52.494;7.546;2023-04-06T00:54:31;101224.06;;;5.32;47.60
40788;BME280;26497;52.494;7.546;2023-04-06T00:56:58;101215.09;;;5.24;47.87
40788;BME280;26497;52.494;7.546;2023-04-06T00:59:26;101215.25;;;5.29;48.27
40788;BME280;26497;52.494;7.546;2023-04-06T01:01:54;101220.59;;;5.34;48.27
40788;BME280;26497;52.494;7.546;2023-04-06T01:04:21;101213.59;;;5.32;48.07
40788;BME280;26497;52.494;7.546;2023-04-06T01:06:49;101208.16;;;5.26;48.47
40788;BME280;26497;52.494;7.546;2023-04-06T01:09:16;101207.34;;;5.27;48.22
40788;BME280;26497;52.494;7.546;2023-04-06T01:11:44;101203.22;;;5.36;47.94
40788;BME280;26497;52.494;7.546;2023-04-06T01:14:11;101207.41;;;5.30;47.93
40788;BME280;26497;52.494;7.546;2023-04-06T01:16:38;101198.56;;;5.25;48.02
40788;BME280;26497;52.494;7.546;2023-04-06T01:19:10;101199.66;;;5.34;47.67
40788;BME280;26497;52.494;7.546;2023-04-06T01:21:38;101196.47;;;5.44;47.68
40788;BME280;26497;52.494;7.546;2023-04-06T01:24:08;101206.41;;;5.25;47.73
40788;BME280;26497;52.494;7.546;2023-04-06T01:26:36;101198.06;;;5.08;48.42
40788;BME280;26497;52.494;7.546;2023-04-06T01:29:03;101197.66;;;4.96;48.42
40788;BME280;26497;52.494;7.546;2023-04-06T01:31:31;101200.94;;;4.89;48.58
40788;BME280;26497;52.494;7.546;2023-04-06T01:33:57;101199.06;;;4.84;49.14
40788;BME280;26497;52.494;7.546;2023-04-06T01:36:25;101200.00;;;4.86;48.95
40788;BME280;26497;52.494;7.546;2023-04-06T01:38:52;101190.47;;;4.89;49.37
40788;BME280;26497;52.494;7.546;2023-04-06T01:41:20;101187.03;;;4.90;49.07
40788;BME280;26497;52.494;7.546;2023-04-06T01:43:48;101185.38;;;4.93;49.27
40788;BME280;26497;52.494;7.546;2023-04-06T01:46:15;101184.03;;;5.06;49.41
40788;BME280;26497;52.494;7.546;2023-04-06T01:48:42;101180.03;;;5.18;49.43
40788;BME280;26497;52.494;7.546;2023-04-06T01:51:09;101175.00;;;5.25;49.54
40788;BME280;26497;52.494;7.546;2023-04-06T01:53:36;101179.63;;;5.34;49.35
40788;BME280;26497;52.494;7.546;2023-04-06T01:56:04;101178.75;;;5.34;49.35
40788;BME280;26497;52.494;7.546;2023-04-06T01:58:33;101174.25;;;5.29;49.35
40788;BME280;26497;52.494;7.546;2023-04-06T02:01:01;101175.16;;;5.30;49.19
40788;BME280;26497;52.494;7.546;2023-04-06T02:03:28;101173.44;;;5.32;48.99
40788;BME280;26497;52.494;7.546;2023-04-06T02:05:55;101175.22;;;5.33;48.79
40788;BME280;26497;52.494;7.546;2023-04-06T02:08:21;101174.16;;;5.26;49.10
40788;BME280;26497;52.494;7.546;2023-04-06T02:10:49;101176.59;;;5.20;48.74
40788;BME280;26497;52.494;7.546;2023-04-06T02:13:16;101166.81;;;5.13;48.87
40788;BME280;26497;52.494;7.546;2023-04-06T02:15:44;101170.72;;;4.98;48.72
40788;BME280;26497;52.494;7.546;2023-04-06T02:18:11;101172.13;;;4.87;48.63
40788;BME280;26497;52.494;7.546;2023-04-06T02:20:38;101169.59;;;4.90;48.90
40788;BME280;26497;52.494;7.546;2023-04-06T02:23:05;101173.25;;;4.95;48.36
40788;BME280;26497;52.494;7.546;2023-04-06T02:25:32;101161.06;;;4.96;48.59
40788;BME280;26497;52.494;7.546;2023-04-06T02:27:59;101164.25;;;4.85;48.73
40788;BME280;26497;52.494;7.546;2023-04-06T02:30:26;101173.69;;;4.82;49.09
40788;BME280;26497;52.494;7.546;2023-04-06T02:32:56;101163.91;;;5.04;48.43
40788;BME280;26497;52.494;7.546;2023-04-06T02:35:25;101160.34;;;5.01;48.87
40788;BME280;26497;52.494;7.546;2023-04-06T02:37:52;101162.59;;;4.89;49.15
40788;BME280;26497;52.494;7.546;2023-04-06T02:40:19;101161.91;;;4.67;49.33
40788;BME280;26497;52.494;7.546;2023-04-06T02:42:46;101157.94;;;4.51;49.77
40788;BME280;26497;52.494;7.546;2023-04-06T02:45:13;101162.09;;;4.45;49.99
40788;BME280;26497;52.494;7.546;2023-04-06T02:47:41;101160.00;;;4.34;49.86
40788;BME280;26497;52.494;7.546;2023-04-06T02:50:10;101158.28;;;4.35;49.80
40788;BME280;26497;52.494;7.546;2023-04-06T02:52:37;101147.38;;;4.48;50.32
40788;BME280;26497;52.494;7.546;2023-04-06T02:55:05;101146.91;;;4.60;49.69
40788;BME280;26497;52.494;7.546;2023-04-06T02:57:33;101143.06;;;4.78;49.49
40788;BME280;26497;52.494;7.546;2023-04-06T03:00:00;101146.69;;;4.81;49.37
40788;BME280;26497;52.494;7.546;2023-04-06T03:02:27;101140.16;;;4.67;49.75
40788;BME280;26497;52.494;7.546;2023-04-06T03:04:54;101143.06;;;4.49;49.85
40788;BME280;26497;52.494;7.546;2023-04-06T03:07:22;101138.97;;;4.57;49.87
40788;BME280;26497;52.494;7.546;2023-04-06T03:09:49;101143.38;;;4.58;50.05
40788;BME280;26497;52.494;7.546;2023-04-06T03:12:16;101145.13;;;4.59;49.97
40788;BME280;26497;52.494;7.546;2023-04-06T03:14:44;101149.22;;;4.51;49.94
40788;BME280;26497;52.494;7.546;2023-04-06T03:17:11;101141.44;;;4.52;49.49
40788;BME280;26497;52.494;7.546;2023-04-06T03:19:38;101144.84;;;4.50;49.78
40788;BME280;26497;52.494;7.546;2023-04-06T03:22:05;101143.00;;;4.47;49.83
40788;BME280;26497;52.494;7.546;2023-04-06T03:24:33;101144.75;;;4.47;49.86
40788;BME280;26497;52.494;7.546;2023-04-06T03:27:00;101137.25;;;4.57;49.72
40788;BME280;26497;52.494;7.546;2023-04-06T03:29:27;101140.25;;;4.70;49.12
40788;BME280;26497;52.494;7.546;2023-04-06T03:31:54;101140.16;;;4.67;49.46
40788;BME280;26497;52.494;7.546;2023-04-06T03:34:21;101134.00;;;4.66;49.21
40788;BME280;26497;52.494;7.546;2023-04-06T03:36:48;101145.13;;;4.59;49.67
40788;BME280;26497;52.494;7.546;2023-04-06T03:39:15;101138.91;;;4.55;49.46
40788;BME280;26497;52.494;7.546;2023-04-06T03:41:44;101140.38;;;4.47;49.67
40788;BME280;26497;52.494;7.546;2023-04-06T03:44:11;101135.88;;;4.41;49.69
40788;BME280;26497;52.494;7.546;2023-04-06T03:46:38;101138.91;;;4.28;49.93
40788;BME280;26497;52.494;7.546;2023-04-06T03:49:05;101127.97;;;4.12;50.45
40788;BME280;26497;52.494;7.546;2023-04-06T03:51:32;101132.97;;;4.06;50.63
40788;BME280;26497;52.494;7.546;2023-04-06T03:53:59;101134.84;;;4.10;50.87
40788;BME280;26497;52.494;7.546;2023-04-06T03:56:26;101138.41;;;4.12;50.33
40788;BME280;26497;52.494;7.546;2023-04-06T03:58:55;101135.63;;;4.08;50.46
40788;BME280;26497;52.494;7.546;2023-04-06T04:01:22;101138.50;;;3.90;50.53
40788;BME280;26497;52.494;7.546;2023-04-06T04:03:49;101139.66;;;3.98;51.44
40788;BME280;26497;52.494;7.546;2023-04-06T04:06:16;101141.75;;;4.08;51.23
40788;BME280;26497;52.494;7.546;2023-04-06T04:08:43;101130.38;;;4.06;51.52
40788;BME280;26497;52.494;7.546;2023-04-06T04:11:10;101130.38;;;4.06;51.27
40788;BME280;26497;52.494;7.546;2023-04-06T04:13:37;101131.09;;;4.02;51.03
40788;BME280;26497;52.494;7.546;2023-04-06T04:16:05;101137.88;;;3.97;51.51
40788;BME280;26497;52.494;7.546;2023-04-06T04:18:32;101136.91;;;3.93;51.50
40788;BME280;26497;52.494;7.546;2023-04-06T04:20:59;101132.56;;;3.94;51.64
40788;BME280;26497;52.494;7.546;2023-04-06T04:23:26;101136.84;;;3.92;51.64
40788;BME280;26497;52.494;7.546;2023-04-06T04:25:53;101129.81;;;3.89;51.38
40788;BME280;26497;52.494;7.546;2023-04-06T04:28:21;101125.66;;;3.96;51.22
40788;BME280;26497;52.494;7.546;2023-04-06T04:30:48;101136.00;;;3.93;51.54
40788;BME280;26497;52.494;7.546;2023-04-06T04:33:16;101128.69;;;3.82;50.93
40788;BME280;26497;52.494;7.546;2023-04-06T04:35:43;101139.69;;;3.74;51.19
40788;BME280;26497;52.494;7.546;2023-04-06T04:38:10;101131.91;;;3.75;51.82
40788;BME280;26497;52.494;7.546;2023-04-06T04:40:37;101132.09;;;3.80;51.75
40788;BME280;26497;52.494;7.546;2023-04-06T04:43:04;101133.03;;;3.82;51.40
40788;BME280;26497;52.494;7.546;2023-04-06T04:45:31;101125.94;;;3.78;51.86
40788;BME280;26497;52.494;7.546;2023-04-06T04:47:58;101134.63;;;3.78;51.40
40788;BME280;26497;52.494;7.546;2023-04-06T04:50:26;101128.25;;;3.70;51.76
40788;BME280;26497;52.494;7.546;2023-04-06T04:52:53;101136.81;;;3.66;51.80
40788;BME280;26497;52.494;7.546;2023-04-06T04:55:20;101138.66;;;3.68;52.03
40788;BME280;26497;52.494;7.546;2023-04-06T04:57:47;101133.47;;;3.70;52.04
40788;BME280;26497;52.494;7.546;2023-04-06T05:00:15;101134.63;;;3.78;52.40
40788;BME280;26497;52.494;7.546;2023-04-06T05:02:42;101134.75;;;3.81;52.56
40788;BME280;26497;52.494;7.546;2023-04-06T05:05:09;101130.69;;;3.90;52.54
40788;BME280;26497;52.494;7.546;2023-04-06T05:07:37;101130.94;;;3.97;52.77
40788;BME280;26497;52.494;7.546;2023-04-06T05:10:06;101131.41;;;4.11;52.54
40788;BME280;26497;52.494;7.546;2023-04-06T05:12:34;101128.16;;;4.19;52.36
40788;BME280;26497;52.494;7.546;2023-04-06T05:15:01;101130.91;;;4.23;52.70
40788;BME280;26497;52.494;7.546;2023-04-06T05:17:28;101127.00;;;4.36;53.21
40788;BME280;26497;52.494;7.546;2023-04-06T05:19:55;101129.91;;;4.46;52.63
40788;BME280;26497;52.494;7.546;2023-04-06T05:22:22;101128.66;;;4.62;52.53
40788;BME280;26497;52.494;7.546;2023-04-06T05:24:50;101126.47;;;4.76;52.59
40788;BME280;26497;52.494;7.546;2023-04-06T05:27:17;101131.00;;;4.81;52.55
40788;BME280;26497;52.494;7.546;2023-04-06T05:29:44;101120.00;;;4.92;52.09
40788;BME280;26497;52.494;7.546;2023-04-06T05:32:12;101120.31;;;5.02;52.45
40788;BME280;26497;52.494;7.546;2023-04-06T05:34:39;101126.00;;;5.18;52.16
40788;BME280;26497;52.494;7.546;2023-04-06T05:37:06;101118.50;;;5.30;51.87
40788;BME280;26497;52.494;7.546;2023-04-06T05:39:33;101121.53;;;5.46;51.74
40788;BME280;26497;52.494;7.546;2023-04-06T05:42:04;101125.44;;;5.60;51.45
40788;BME280;26497;52.494;7.546;2023-04-06T05:44:32;101123.25;;;5.78;51.01
40788;BME280;26497;52.494;7.546;2023-04-06T05:46:59;101121.13;;;5.96;50.57
40788;BME280;26497;52.494;7.546;2023-04-06T05:49:26;101110.16;;;6.10;50.20
40788;BME280;26497;52.494;7.546;2023-04-06T05:51:53;101113.00;;;6.19;50.11
40788;BME280;26497;52.494;7.546;2023-04-06T05:54:20;101120.34;;;6.34;49.73
40788;BME280;26497;52.494;7.546;2023-04-06T05:56:47;101117.03;;;6.41;49.50
40788;BME280;26497;52.494;7.546;2023-04-06T05:59:15;101114.75;;;6.55;49.26
40788;BME280;26497;52.494;7.546;2023-04-06T06:01:42;101111.59;;;6.70;48.98
40788;BME280;26497;52.494;7.546;2023-04-06T06:04:09;101118.13;;;6.89;48.94
40788;BME280;26497;52.494;7.546;2023-04-06T06:06:36;101115.16;;;7.15;48.87
40788;BME280;26497;52.494;7.546;2023-04-06T06:09:03;101103.84;;;7.62;49.27
40788;BME280;26497;52.494;7.546;2023-04-06T06:11:30;101103.81;;;8.10;47.31
40788;BME280;26497;52.494;7.546;2023-04-06T06:13:58;101104.22;;;8.36;45.63
40788;BME280;26497;52.494;7.546;2023-04-06T06:16:27;101104.59;;;8.58;45.18
40788;BME280;26497;52.494;7.546;2023-04-06T06:18:54;101103.16;;;8.80;44.66
40788;BME280;26497;52.494;7.546;2023-04-06T06:21:21;101104.06;;;9.56;44.09
40788;BME280;26497;52.494;7.546;2023-04-06T06:23:48;101104.22;;;10.74;42.29
40788;BME280;26497;52.494;7.546;2023-04-06T06:26:16;101102.00;;;12.07;40.30
40788;BME280;26497;52.494;7.546;2023-04-06T06:28:43;101095.53;;;13.42;36.60
40788;BME280;26497;52.494;7.546;2023-04-06T06:31:10;101093.75;;;14.58;33.64
40788;BME280;26497;52.494;7.546;2023-04-06T06:33:39;101085.53;;;15.55;31.83
40788;BME280;26497;52.494;7.546;2023-04-06T06:36:06;101079.78;;;16.39;30.34
40788;BME280;26497;52.494;7.546;2023-04-06T06:38:33;101086.41;;;17.12;28.83
40788;BME280;26497;52.494;7.546;2023-04-06T06:41:00;101085.16;;;17.68;27.83
40788;BME280;26497;52.494;7.546;2023-04-06T06:43:27;101090.19;;;18.18;27.13
40788;BME280;26497;52.494;7.546;2023-04-06T06:45:55;101083.56;;;18.68;26.30
40788;BME280;26497;52.494;7.546;2023-04-06T06:48:22;101079.44;;;19.21;25.84
40788;BME280;26497;52.494;7.546;2023-04-06T06:50:50;101076.56;;;19.84;25.25
40788;BME280;26497;52.494;7.546;2023-04-06T06:53:17;101079.09;;;20.17;24.78
40788;BME280;26497;52.494;7.546;2023-04-06T06:55:44;101069.75;;;20.29;24.17
40788;BME280;26497;52.494;7.546;2023-04-06T06:58:11;101072.59;;;20.50;23.55
40788;BME280;26497;52.494;7.546;2023-04-06T07:00:38;101068.72;;;20.58;23.31
40788;BME280;26497;52.494;7.546;2023-04-06T07:03:05;101070.72;;;20.53;23.30
40788;BME280;26497;52.494;7.546;2023-04-06T07:05:32;101064.41;;;20.29;23.42
40788;BME280;26497;52.494;7.546;2023-04-06T07:08:01;101063.75;;;20.47;23.25
40788;BME280;26497;52.494;7.546;2023-04-06T07:10:28;101062.88;;;20.47;23.18
40788;BME280;26497;52.494;7.546;2023-04-06T07:12:55;101060.84;;;20.54;23.45
40788;BME280;26497;52.494;7.546;2023-04-06T07:15:22;101057.44;;;20.74;23.20
40788;BME280;26497;52.494;7.546;2023-04-06T07:17:49;101060.63;;;20.85;22.77
40788;BME280;26497;52.494;7.546;2023-04-06T07:20:18;101064.47;;;21.02;22.52
40788;BME280;26497;52.494;7.546;2023-04-06T07:22:45;101058.75;;;21.35;22.40
40788;BME280;26497;52.494;7.546;2023-04-06T07:25:13;101060.97;;;21.47;22.28
40788;BME280;26497;52.494;7.546;2023-04-06T07:27:40;101064.44;;;21.73;22.15
40788;BME280;26497;52.494;7.546;2023-04-06T07:30:08;101062.34;;;22.45;21.92
40788;BME280;26497;52.494;7.546;2023-04-06T07:32:35;101055.13;;;23.25;21.26
40788;BME280;26497;52.494;7.546;2023-04-06T07:35:03;101047.28;;;23.77;20.56
40788;BME280;26497;52.494;7.546;2023-04-06T07:37:30;101048.88;;;23.98;20.16
40788;BME280;26497;52.494;7.546;2023-04-06T07:39:57;101049.19;;;24.29;19.92
40788;BME280;26497;52.494;7.546;2023-04-06T07:42:26;101048.59;;;24.40;19.59
40788;BME280;26497;52.494;7.546;2023-04-06T07:44:53;101050.13;;;24.46;19.26
40788;BME280;26497;52.494;7.546;2023-04-06T07:47:20;101050.03;;;24.29;19.01
40788;BME280;26497;52.494;7.546;2023-04-06T07:49:47;101056.97;;;23.98;19.37
40788;BME280;26497;52.494;7.546;2023-04-06T07:52:14;101049.56;;;24.04;19.69
40788;BME280;26497;52.494;7.546;2023-04-06T07:54:41;101051.97;;;23.91;19.60
40788;BME280;26497;52.494;7.546;2023-04-06T07:57:08;101054.72;;;24.08;20.07
40788;BME280;26497;52.494;7.546;2023-04-06T07:59:36;101055.84;;;24.22;19.54
40788;BME280;26497;52.494;7.546;2023-04-06T08:02:04;101050.78;;;23.79;19.13
40788;BME280;26497;52.494;7.546;2023-04-06T08:04:31;101056.59;;;22.74;20.54
40788;BME280;26497;52.494;7.546;2023-04-06T08:06:58;101058.56;;;23.29;20.92
40788;BME280;26497;52.494;7.546;2023-04-06T08:09:25;101048.63;;;23.85;20.12
40788;BME280;26497;52.494;7.546;2023-04-06T08:11:53;101060.75;;;24.13;19.82
40788;BME280;26497;52.494;7.546;2023-04-06T08:14:20;101053.13;;;24.04;20.23
40788;BME280;26497;52.494;7.546;2023-04-06T08:16:49;101046.69;;;24.24;19.84
40788;BME280;26497;52.494;7.546;2023-04-06T08:19:15;101050.22;;;23.90;20.53
40788;BME280;26497;52.494;7.546;2023-04-06T08:21:44;101052.66;;;24.31;20.24
40788;BME280;26497;52.494;7.546;2023-04-06T08:24:11;101046.34;;;24.99;19.66
40788;BME280;26497;52.494;7.546;2023-04-06T08:26:38;101048.69;;;24.90;19.58
40788;BME280;26497;52.494;7.546;2023-04-06T08:29:05;101055.00;;;24.55;19.10
40788;BME280;26497;52.494;7.546;2023-04-06T08:31:33;101044.22;;;24.72;19.93
40788;BME280;26497;52.494;7.546;2023-04-06T08:34:04;101047.94;;;25.03;19.25
40788;BME280;26497;52.494;7.546;2023-04-06T08:36:31;101047.13;;;24.68;18.74
40788;BME280;26497;52.494;7.546;2023-04-06T08:38:59;101048.66;;;23.49;19.57
40788;BME280;26497;52.494;7.546;2023-04-06T08:41:27;101048.78;;;23.07;20.48
40788;BME280;26497;52.494;7.546;2023-04-06T08:43:57;101045.66;;;23.55;20.25
40788;BME280;26497;52.494;7.546;2023-04-06T08:46:25;101038.88;;;24.37;20.01
40788;BME280;26497;52.494;7.546;2023-04-06T08:48:56;101029.75;;;25.23;19.86
40788;BME280;26497;52.494;7.546;2023-04-06T08:51:26;101032.03;;;25.47;18.70
40788;BME280;26497;52.494;7.546;2023-04-06T08:53:54;101033.31;;;25.72;18.45
40788;BME280;26497;52.494;7.546;2023-04-06T08:56:22;101031.31;;;25.75;19.29
40788;BME280;26497;52.494;7.546;2023-04-06T08:58:49;101028.91;;;24.73;18.75
40788;BME280;26497;52.494;7.546;2023-04-06T09:01:20;101029.19;;;24.51;19.59
40788;BME280;26497;52.494;7.546;2023-04-06T09:03:48;101036.16;;;24.37;19.90
40788;BME280;26497;52.494;7.546;2023-04-06T09:06:16;101029.91;;;24.70;19.32
40788;BME280;26497;52.494;7.546;2023-04-06T09:08:44;101033.16;;;25.89;18.38
40788;BME280;26497;52.494;7.546;2023-04-06T09:11:11;101035.03;;;26.19;18.61
40788;BME280;26497;52.494;7.546;2023-04-06T09:13:46;101031.22;;;25.77;18.00
40788;BME280;26497;52.494;7.546;2023-04-06T09:16:14;101029.13;;;26.13;17.38
40788;BME280;26497;52.494;7.546;2023-04-06T09:18:42;101029.13;;;25.34;17.67
40788;BME280;26497;52.494;7.546;2023-04-06T09:21:09;101026.34;;;25.36;18.76
40788;BME280;26497;52.494;7.546;2023-04-06T09:23:37;101016.81;;;25.46;18.12
40788;BME280;26497;52.494;7.546;2023-04-06T09:26:11;101015.75;;;25.32;17.44
40788;BME280;26497;52.494;7.546;2023-04-06T09:28:46;101012.47;;;24.78;17.97
40788;BME280;26497;52.494;7.546;2023-04-06T09:31:15;101020.00;;;25.53;17.91
40788;BME280;26497;52.494;7.546;2023-04-06T09:33:45;101018.09;;;25.39;17.47
40788;BME280;26497;52.494;7.546;2023-04-06T09:36:12;101012.16;;;25.95;17.80
40788;BME280;26497;52.494;7.546;2023-04-06T09:38:52;101012.50;;;25.10;17.39
40788;BME280;26497;52.494;7.546;2023-04-06T09:41:26;101004.22;;;24.29;17.73
40788;BME280;26497;52.494;7.546;2023-04-06T09:44:03;101008.88;;;23.73;17.96
40788;BME280;26497;52.494;7.546;2023-04-06T09:46:32;101006.09;;;23.38;19.06
40788;BME280;26497;52.494;7.546;2023-04-06T09:49:01;101012.88;;;23.08;19.02
40788;BME280;26497;52.494;7.546;2023-04-06T09:51:31;101011.78;;;23.12;19.73
40788;BME280;26497;52.494;7.546;2023-04-06T09:54:00;101005.78;;;24.51;18.10
40788;BME280;26497;52.494;7.546;2023-04-06T09:56:39;101003.09;;;23.98;17.41
40788;BME280;26497;52.494;7.546;2023-04-06T09:59:21;101006.91;;;23.77;18.80
40788;BME280;26497;52.494;7.546;2023-04-06T10:01:52;101001.66;;;23.56;17.36
40788;BME280;26497;52.494;7.546;2023-04-06T10:04:32;100994.47;;;23.74;18.11
40788;BME280;26497;52.494;7.546;2023-04-06T10:07:04;100989.72;;;23.79;17.94
40788;BME280;26497;52.494;7.546;2023-04-06T10:09:33;100983.56;;;24.12;18.22
40788;BME280;26497;52.494;7.546;2023-04-06T10:12:05;100979.09;;;24.80;17.32
40788;BME280;26497;52.494;7.546;2023-04-06T10:14:34;100982.22;;;25.37;17.29
40788;BME280;26497;52.494;7.546;2023-04-06T10:17:03;100976.75;;;25.22;16.90
40788;BME280;26497;52.494;7.546;2023-04-06T10:19:39;100977.28;;;25.75;18.16
40788;BME280;26497;52.494;7.546;2023-04-06T10:22:10;100982.38;;;26.56;16.83
40788;BME280;26497;52.494;7.546;2023-04-06T10:24:39;100980.41;;;27.16;15.78
40788;BME280;26497;52.494;7.546;2023-04-06T10:27:07;100982.19;;;26.59;16.56
40788;BME280;26497;52.494;7.546;2023-04-06T10:29:44;100996.00;;;25.79;15.83
40788;BME280;26497;52.494;7.546;2023-04-06T10:32:12;100981.72;;;24.98;17.01
40788;BME280;26497;52.494;7.546;2023-04-06T10:34:39;100989.88;;;24.47;16.64
40788;BME280;26497;52.494;7.546;2023-04-06T10:37:16;100979.91;;;23.96;17.28
40788;BME280;26497;52.494;7.546;2023-04-06T10:39:52;100978.38;;;24.59;16.76
40788;BME280;26497;52.494;7.546;2023-04-06T10:42:36;100979.34;;;23.71;16.96
40788;BME280;26497;52.494;7.546;2023-04-06T10:45:07;100974.69;;;24.10;17.90
40788;BME280;26497;52.494;7.546;2023-04-06T10:47:39;100969.19;;;24.29;17.56
40788;BME280;26497;52.494;7.546;2023-04-06T10:50:08;100965.31;;;23.65;17.50
40788;BME280;26497;52.494;7.546;2023-04-06T10:52:35;100967.53;;;23.92;17.18
40788;BME280;26497;52.494;7.546;2023-04-06T10:55:03;100968.56;;;23.89;16.64
40788;BME280;26497;52.494;7.546;2023-04-06T10:57:33;100970.28;;;23.55;16.77
40788;BME280;26497;52.494;7.546;2023-04-06T11:00:00;100966.94;;;21.93;18.60
40788;BME280;26497;52.494;7.546;2023-04-06T11:02:27;100961.09;;;22.25;18.60
40788;BME280;26497;52.494;7.546;2023-04-06T11:04:56;100973.19;;;22.15;18.45
40788;BME280;26497;52.494;7.546;2023-04-06T11:07:24;100976.59;;;21.98;17.94
40788;BME280;26497;52.494;7.546;2023-04-06T11:09:52;100965.38;;;21.88;18.18
40788;BME280;26497;52.494;7.546;2023-04-06T11:12:24;100977.31;;;21.58;18.59
40788;BME280;26497;52.494;7.546;2023-04-06T11:14:56;100970.28;;;21.33;19.07
40788;BME280;26497;52.494;7.546;2023-04-06T11:17:30;100973.44;;;20.99;19.28
40788;BME280;26497;52.494;7.546;2023-04-06T11:19:58;100967.00;;;21.27;18.76
40788;BME280;26497;52.494;7.546;2023-04-06T11:22:26;100961.00;;;21.42;19.95
40788;BME280;26497;52.494;7.546;2023-04-06T11:25:04;100966.06;;;21.28;18.88
40788;BME280;26497;52.494;7.546;2023-04-06T11:27:31;100968.09;;;20.99;18.82
40788;BME280;26497;52.494;7.546;2023-04-06T11:30:00;100964.59;;;20.97;19.89
40788;BME280;26497;52.494;7.546;2023-04-06T11:32:28;100965.94;;;21.75;19.08
40788;BME280;26497;52.494;7.546;2023-04-06T11:34:57;100964.63;;;21.19;18.80
40788;BME280;26497;52.494;7.546;2023-04-06T11:37:26;100964.06;;;20.63;20.10
40788;BME280;26497;52.494;7.546;2023-04-06T11:39:55;100966.59;;;20.91;19.91
40788;BME280;26497;52.494;7.546;2023-04-06T11:42:23;100961.44;;;20.61;20.21
40788;BME280;26497;52.494;7.546;2023-04-06T11:44:51;100956.31;;;20.55;20.22
40788;BME280;26497;52.494;7.546;2023-04-06T11:47:20;100949.84;;;20.37;20.06
40788;BME280;26497;52.494;7.546;2023-04-06T11:49:53;100955.56;;;20.52;20.32
40788;BME280;26497;52.494;7.546;2023-04-06T11:52:22;100947.16;;;21.31;19.44
40788;BME280;26497;52.494;7.546;2023-04-06T11:54:51;100947.25;;;21.93;18.96
40788;BME280;26497;52.494;7.546;2023-04-06T11:57:20;100949.69;;;21.78;19.55
40788;BME280;26497;52.494;7.546;2023-04-06T11:59:48;100946.38;;;21.72;19.20
40788;BME280;26497;52.494;7.546;2023-04-06T12:02:16;100947.69;;;21.84;19.57
40788;BME280;26497;52.494;7.546;2023-04-06T12:04:45;100941.13;;;21.03;20.51
40788;BME280;26497;52.494;7.546;2023-04-06T12:07:12;100949.63;;;20.91;19.63
40788;BME280;26497;52.494;7.546;2023-04-06T12:09:39;100937.00;;;21.17;19.54
40788;BME280;26497;52.494;7.546;2023-04-06T12:12:06;100941.34;;;20.97;20.13
40788;BME280;26497;52.494;7.546;2023-04-06T12:14:33;100940.09;;;21.06;18.38
40788;BME280;26497;52.494;7.546;2023-04-06T12:17:00;100941.97;;;21.48;19.13
40788;BME280;26497;52.494;7.546;2023-04-06T12:19:27;100930.38;;;21.70;18.71
40788;BME280;26497;52.494;7.546;2023-04-06T12:21:57;100937.38;;;21.30;19.04
40788;BME280;26497;52.494;7.546;2023-04-06T12:24:24;100937.75;;;21.86;18.33
40788;BME280;26497;52.494;7.546;2023-04-06T12:26:51;100931.56;;;22.84;18.25
40788;BME280;26497;52.494;7.546;2023-04-06T12:29:18;100920.19;;;23.88;17.44
40788;BME280;26497;52.494;7.546;2023-04-06T12:31:45;100915.28;;;23.78;16.74
40788;BME280;26497;52.494;7.546;2023-04-06T12:34:12;100924.78;;;23.68;17.13
40788;BME280;26497;52.494;7.546;2023-04-06T12:36:39;100925.84;;;23.29;17.71
40788;BME280;26497;52.494;7.546;2023-04-06T12:39:08;100927.72;;;22.31;18.59
40788;BME280;26497;52.494;7.546;2023-04-06T12:41:35;100928.94;;;22.43;18.57
40788;BME280;26497;52.494;7.546;2023-04-06T12:44:02;100920.41;;;22.53;18.42
40788;BME280;26497;52.494;7.546;2023-04-06T12:46:30;100916.59;;;22.59;18.70
40788;BME280;26497;52.494;7.546;2023-04-06T12:48:57;100920.81;;;22.84;18.80
40788;BME280;26497;52.494;7.546;2023-04-06T12:51:27;100917.38;;;22.80;18.28
40788;BME280;26497;52.494;7.546;2023-04-06T12:53:54;100921.56;;;23.24;18.51
40788;BME280;26497;52.494;7.546;2023-04-06T12:56:23;100918.91;;;22.86;18.72
40788;BME280;26497;52.494;7.546;2023-04-06T12:58:51;100913.88;;;22.78;18.53